createdAt,value
2023-09-24T00:00:59.281Z,94.29
2023-09-24T00:03:27.190Z,94.45
2023-09-24T00:05:54.490Z,94.42
2023-09-24T00:08:21.542Z,94.43
2023-09-24T00:10:51.804Z,94.44
2023-09-24T00:13:18.537Z,94.46
2023-09-24T00:15:45.264Z,94.35
2023-09-24T00:18:11.916Z,94.69
2023-09-24T00:20:38.886Z,94.29
2023-09-24T00:23:05.407Z,94.71
2023-09-24T00:25:31.986Z,94.41
2023-09-24T00:27:58.597Z,94.32
2023-09-24T00:30:25.251Z,94.21
2023-09-24T00:32:54.939Z,94.30
2023-09-24T00:35:23.683Z,94.29
2023-09-24T00:37:50.432Z,94.43
2023-09-24T00:40:16.970Z,94.30
2023-09-24T00:42:43.572Z,94.21
2023-09-24T00:45:12.841Z,94.50
2023-09-24T00:47:45.624Z,94.28
2023-09-24T00:50:13.297Z,94.01
2023-09-24T00:52:43.525Z,94.25
2023-09-24T00:55:14.317Z,94.18
2023-09-24T00:57:42.166Z,94.72
2023-09-24T01:00:12.888Z,94.12
2023-09-24T01:02:40.734Z,93.94
2023-09-24T01:05:11.524Z,94.10
2023-09-24T01:07:40.755Z,94.33
2023-09-24T01:10:12.271Z,94.58
2023-09-24T01:12:40.944Z,94.38
2023-09-24T01:15:14.267Z,94.78
2023-09-24T01:17:40.951Z,94.36
2023-09-24T01:20:13.294Z,94.43
2023-09-24T01:22:41.586Z,94.25
2023-09-24T01:25:08.597Z,94.55
2023-09-24T01:27:36.646Z,94.35
2023-09-24T01:30:07.288Z,93.95
2023-09-24T01:32:34.140Z,93.82
2023-09-24T01:35:07.355Z,93.71
2023-09-24T01:37:35.172Z,93.59
2023-09-24T01:40:08.351Z,93.78
2023-09-24T01:42:35.595Z,93.98
2023-09-24T01:45:02.179Z,93.91
2023-09-24T01:47:29.772Z,93.51
2023-09-24T01:49:58.145Z,93.43
2023-09-24T01:52:24.679Z,93.46
2023-09-24T01:54:51.889Z,93.36
2023-09-24T01:57:19.999Z,94.03
2023-09-24T01:59:46.578Z,93.92
2023-09-24T02:02:14.409Z,94.18
2023-09-24T02:04:40.963Z,94.34
2023-09-24T02:07:09.344Z,94.34
2023-09-24T02:09:36.762Z,94.36
2023-09-24T02:12:03.409Z,93.67
2023-09-24T02:14:30.526Z,93.69
2023-09-24T02:16:57.109Z,93.47
2023-09-24T02:19:26.063Z,93.82
2023-09-24T02:21:52.591Z,93.76
2023-09-24T02:24:19.783Z,93.85
2023-09-24T02:26:46.337Z,93.75
2023-09-24T02:29:12.909Z,94.24
2023-09-24T02:31:39.609Z,93.93
2023-09-24T02:34:07.278Z,93.97
2023-09-24T02:36:33.773Z,93.89
2023-09-24T02:39:00.444Z,93.92
2023-09-24T02:41:26.979Z,93.70
2023-09-24T02:43:55.928Z,94.05
2023-09-24T02:46:22.491Z,94.09
2023-09-24T02:48:49.088Z,93.63
2023-09-24T02:51:15.663Z,93.95
2023-09-24T02:53:43.349Z,93.88
2023-09-24T02:56:09.980Z,94.06
2023-09-24T02:58:36.781Z,93.97
2023-09-24T03:01:05.621Z,94.14
2023-09-24T03:03:32.267Z,94.06
2023-09-24T03:05:59.033Z,93.81
2023-09-24T03:08:27.769Z,93.44
2023-09-24T03:10:55.191Z,93.56
2023-09-24T03:13:22.141Z,93.50
2023-09-24T03:15:49.380Z,93.71
2023-09-24T03:18:16.008Z,93.87
2023-09-24T03:20:44.999Z,94.11
2023-09-24T03:23:11.799Z,93.95
2023-09-24T03:25:38.834Z,94.15
2023-09-24T03:28:05.698Z,94.24
2023-09-24T03:30:32.399Z,94.20
2023-09-24T03:33:00.433Z,94.26
2023-09-24T03:35:28.561Z,94.01
2023-09-24T03:37:56.289Z,94.04
2023-09-24T03:40:25.916Z,93.96
2023-09-24T03:42:52.859Z,94.07
2023-09-24T03:45:21.407Z,93.52
2023-09-24T03:47:48.464Z,93.63
2023-09-24T03:50:18.293Z,93.70
2023-09-24T03:52:46.573Z,93.61
2023-09-24T03:55:13.653Z,93.47
2023-09-24T03:57:40.643Z,93.79
2023-09-24T04:00:19.394Z,93.65
2023-09-24T04:02:53.231Z,93.57
2023-09-24T04:05:25.151Z,93.81
2023-09-24T04:07:54.665Z,93.65
2023-09-24T04:10:24.190Z,93.82
2023-09-24T04:12:52.147Z,93.67
2023-09-24T04:15:24.366Z,93.93
2023-09-24T04:17:51.606Z,93.58
2023-09-24T04:20:20.873Z,93.68
2023-09-24T04:22:48.379Z,93.49
2023-09-24T04:25:16.683Z,93.73
2023-09-24T04:27:43.777Z,94.06
2023-09-24T04:30:12.840Z,93.82
2023-09-24T04:32:39.925Z,93.58
2023-09-24T04:35:07.107Z,93.52
2023-09-24T04:37:33.737Z,93.36
2023-09-24T04:40:00.382Z,93.65
2023-09-24T04:42:26.952Z,92.94
2023-09-24T04:44:53.651Z,93.46
2023-09-24T04:47:20.260Z,93.10
2023-09-24T04:49:48.068Z,92.97
2023-09-24T04:52:14.610Z,92.94
2023-09-24T04:54:41.177Z,93.00
2023-09-24T04:57:09.122Z,93.24
2023-09-24T04:59:35.876Z,93.32
2023-09-24T05:02:02.428Z,92.95
2023-09-24T05:04:29.125Z,93.45
2023-09-24T05:06:55.888Z,92.81
2023-09-24T05:09:26.518Z,92.81
2023-09-24T05:11:55.170Z,92.85
2023-09-24T05:14:22.001Z,93.14
2023-09-24T05:16:52.306Z,93.49
2023-09-24T05:19:19.088Z,92.93
2023-09-24T05:21:46.036Z,92.94
2023-09-24T05:24:12.806Z,93.04
2023-09-24T05:26:39.460Z,92.99
2023-09-24T05:29:06.082Z,93.02
2023-09-24T05:31:32.578Z,92.95
2023-09-24T05:33:59.532Z,93.33
2023-09-24T05:36:26.160Z,93.34
2023-09-24T05:38:52.742Z,93.26
2023-09-24T05:41:19.309Z,93.35
2023-09-24T05:43:46.923Z,93.59
2023-09-24T05:46:13.591Z,93.01
2023-09-24T05:48:40.257Z,93.31
2023-09-24T05:51:08.384Z,93.33
2023-09-24T05:53:35.152Z,93.46
2023-09-24T05:56:03.285Z,93.67
2023-09-24T05:58:29.881Z,93.40
2023-09-24T06:00:57.300Z,93.79
2023-09-24T06:03:24.146Z,93.88
2023-09-24T06:05:50.930Z,93.70
2023-09-24T06:08:17.546Z,93.90
2023-09-24T06:10:46.031Z,93.91
2023-09-24T06:13:19.614Z,94.17
2023-09-24T06:15:46.331Z,94.31
2023-09-24T06:18:13.870Z,94.87
2023-09-24T06:20:42.362Z,94.96
2023-09-24T06:23:10.010Z,94.75
2023-09-24T06:25:36.665Z,95.04
2023-09-24T06:28:05.616Z,95.05
2023-09-24T06:30:32.253Z,95.21
2023-09-24T06:32:59.009Z,95.54
2023-09-24T06:35:25.722Z,95.35
2023-09-24T06:37:52.308Z,95.64
2023-09-24T06:40:19.135Z,95.83
2023-09-24T06:42:47.018Z,95.69
2023-09-24T06:45:13.818Z,95.95
2023-09-24T06:47:40.541Z,95.81
2023-09-24T06:50:07.776Z,95.97
2023-09-24T06:52:34.332Z,96.04
2023-09-24T06:55:01.169Z,96.13
2023-09-24T06:57:27.642Z,96.07
2023-09-24T06:59:55.395Z,96.17
2023-09-24T07:02:22.061Z,96.47
2023-09-24T07:04:50.055Z,96.39
2023-09-24T07:07:16.724Z,96.38
2023-09-24T07:09:43.626Z,96.55
2023-09-24T07:12:11.349Z,96.56
2023-09-24T07:14:37.952Z,96.65
2023-09-24T07:17:04.537Z,96.43
2023-09-24T07:19:31.136Z,96.48
2023-09-24T07:21:58.506Z,96.63
2023-09-24T07:24:25.900Z,96.17
2023-09-24T07:26:52.775Z,96.38
2023-09-24T07:29:19.413Z,96.21
2023-09-24T07:31:46.095Z,96.10
2023-09-24T07:34:12.729Z,95.27
2023-09-24T07:36:52.637Z,95.48
2023-09-24T07:39:24.605Z,95.35
2023-09-24T07:41:51.724Z,95.11
2023-09-24T07:44:19.812Z,94.76
2023-09-24T07:46:46.983Z,94.92
2023-09-24T07:49:13.879Z,94.72
2023-09-24T07:51:40.485Z,94.60
2023-09-24T07:54:08.140Z,94.04
2023-09-24T07:56:35.634Z,94.56
2023-09-24T07:59:03.764Z,94.73
2023-09-24T08:01:30.845Z,94.09
2023-09-24T08:03:57.532Z,94.59
2023-09-24T08:06:24.801Z,94.18
2023-09-24T08:09:00.043Z,94.29
2023-09-24T08:11:33.715Z,94.16
2023-09-24T08:14:00.373Z,94.03
2023-09-24T08:16:27.743Z,94.09
2023-09-24T08:18:54.740Z,94.29
2023-09-24T08:21:21.493Z,93.16
2023-09-24T08:23:48.953Z,93.65
2023-09-24T08:26:15.923Z,93.59
2023-09-24T08:28:43.218Z,92.87
2023-09-24T08:31:12.079Z,92.62
2023-09-24T08:33:38.775Z,92.47
2023-09-24T08:36:10.253Z,92.74
2023-09-24T08:38:36.869Z,92.75
2023-09-24T08:41:11.321Z,91.90
2023-09-24T08:43:40.580Z,91.73
2023-09-24T08:46:09.663Z,91.72
2023-09-24T08:48:38.018Z,91.92
2023-09-24T08:51:05.357Z,91.01
2023-09-24T08:53:33.596Z,90.26
2023-09-24T08:56:01.620Z,89.29
2023-09-24T08:58:29.145Z,90.00
2023-09-24T09:00:55.714Z,89.04
2023-09-24T09:03:22.856Z,89.11
2023-09-24T09:05:50.838Z,90.60
2023-09-24T09:08:17.428Z,90.55
2023-09-24T09:10:44.074Z,90.43
2023-09-24T09:13:15.004Z,90.85
2023-09-24T09:15:43.542Z,90.82
2023-09-24T09:18:25.876Z,90.83
2023-09-24T09:21:00.064Z,90.58
2023-09-24T09:23:34.822Z,89.65
2023-09-24T09:26:02.859Z,89.22
2023-09-24T09:28:33.670Z,89.21
2023-09-24T09:31:15.151Z,89.06
2023-09-24T09:33:44.672Z,89.61
2023-09-24T09:36:31.304Z,89.35
2023-09-24T09:38:59.788Z,89.06
2023-09-24T09:41:27.575Z,89.75
2023-09-24T09:43:54.961Z,88.85
2023-09-24T09:46:24.524Z,88.88
2023-09-24T09:48:56.704Z,89.04
2023-09-24T09:51:25.346Z,87.83
2023-09-24T09:53:54.923Z,88.06
2023-09-24T09:56:24.007Z,86.48
2023-09-24T09:58:52.623Z,86.64
2023-09-24T10:01:22.394Z,86.18
2023-09-24T10:03:52.507Z,86.71
2023-09-24T10:06:20.101Z,86.67
2023-09-24T10:08:49.174Z,86.04
2023-09-24T10:11:32.319Z,84.40
2023-09-24T10:14:00.473Z,83.92
2023-09-24T10:16:27.000Z,83.71
2023-09-24T10:18:57.519Z,83.59
2023-09-24T10:21:31.657Z,83.73
2023-09-24T10:24:00.266Z,83.63
2023-09-24T10:26:46.567Z,82.81
2023-09-24T10:29:13.134Z,81.93
2023-09-24T10:32:08.394Z,81.54
2023-09-24T10:34:56.516Z,80.05
2023-09-24T10:37:31.982Z,79.26
2023-09-24T10:40:06.595Z,79.96
2023-09-24T10:42:35.446Z,79.31
2023-09-24T10:45:08.430Z,79.42
2023-09-24T10:47:43.998Z,79.31
2023-09-24T10:50:15.834Z,79.33
2023-09-24T10:52:49.678Z,78.76
2023-09-24T10:55:17.740Z,75.09
2023-09-24T10:57:47.771Z,74.57
2023-09-24T11:00:17.775Z,75.19
2023-09-24T11:02:45.566Z,75.84
2023-09-24T11:05:13.387Z,78.56
2023-09-24T11:07:39.977Z,77.11
2023-09-24T11:10:07.036Z,76.29
2023-09-24T11:12:33.593Z,75.39
2023-09-24T11:15:15.288Z,75.10
2023-09-24T11:17:45.993Z,74.68
2023-09-24T11:20:13.599Z,73.22
2023-09-24T11:22:40.676Z,74.18
2023-09-24T11:25:11.552Z,73.85
2023-09-24T11:27:57.490Z,74.40
2023-09-24T11:30:28.653Z,74.65
2023-09-24T11:32:55.362Z,74.62
2023-09-24T11:35:26.324Z,72.25
2023-09-24T11:38:00.210Z,73.55
2023-09-24T11:40:35.708Z,74.13
2023-09-24T11:43:09.612Z,74.02
2023-09-24T11:45:43.969Z,72.72
2023-09-24T11:48:14.469Z,73.52
2023-09-24T11:50:44.780Z,72.73
2023-09-24T11:53:11.778Z,73.77
2023-09-24T11:55:39.710Z,74.67
2023-09-24T11:58:07.298Z,75.34
2023-09-24T12:00:36.650Z,74.38
2023-09-24T12:03:05.121Z,74.13
2023-09-24T12:05:34.362Z,74.14
2023-09-24T12:08:02.886Z,73.32
2023-09-24T12:10:29.555Z,72.35
2023-09-24T12:13:02.147Z,72.09
2023-09-24T12:15:31.071Z,70.67
2023-09-24T12:17:58.623Z,69.49
2023-09-24T12:20:25.401Z,69.41
2023-09-24T12:22:51.941Z,70.15
2023-09-24T12:25:18.798Z,70.85
2023-09-24T12:27:45.643Z,71.13
2023-09-24T12:30:13.812Z,70.61
2023-09-24T12:32:41.138Z,69.93
2023-09-24T12:35:09.975Z,70.08
2023-09-24T12:37:37.223Z,69.70
2023-09-24T12:40:08.552Z,70.31
2023-09-24T12:42:36.656Z,70.85
2023-09-24T12:45:04.943Z,69.77
2023-09-24T12:47:34.224Z,69.95
2023-09-24T12:50:04.785Z,69.65
2023-09-24T12:52:36.622Z,70.55
2023-09-24T12:55:05.024Z,69.54
2023-09-24T12:57:31.907Z,69.92
2023-09-24T12:59:58.913Z,70.67
2023-09-24T13:02:26.486Z,70.87
2023-09-24T13:04:55.412Z,69.33
2023-09-24T13:07:22.012Z,69.14
2023-09-24T13:09:48.624Z,68.09
2023-09-24T13:12:16.488Z,68.61
2023-09-24T13:14:43.423Z,69.66
2023-09-24T13:17:10.594Z,70.01
2023-09-24T13:19:37.747Z,69.37
2023-09-24T13:22:04.320Z,66.95
2023-09-24T13:24:30.858Z,65.92
2023-09-24T13:26:57.404Z,66.00
2023-09-24T13:29:24.965Z,66.35
2023-09-24T13:31:53.166Z,67.53
2023-09-24T13:34:19.626Z,66.00
2023-09-24T13:36:46.206Z,66.97
2023-09-24T13:39:14.277Z,65.94
2023-09-24T13:41:40.880Z,66.23
2023-09-24T13:44:09.426Z,65.53
2023-09-24T13:46:36.145Z,67.19
2023-09-24T13:49:05.410Z,65.42
2023-09-24T13:51:36.549Z,64.96
2023-09-24T13:54:04.208Z,65.69
2023-09-24T13:56:30.937Z,66.01
2023-09-24T13:58:58.512Z,67.41
2023-09-24T14:01:25.460Z,68.22
2023-09-24T14:03:54.553Z,65.24
2023-09-24T14:06:21.748Z,65.13
2023-09-24T14:09:06.919Z,66.49
2023-09-24T14:11:52.003Z,65.80
2023-09-24T14:14:18.782Z,65.52
2023-09-24T14:16:48.754Z,66.05
2023-09-24T14:19:16.178Z,65.98
2023-09-24T14:21:42.983Z,64.42
2023-09-24T14:24:10.028Z,65.00
2023-09-24T14:26:36.628Z,64.56
2023-09-24T14:29:03.469Z,65.39
2023-09-24T14:31:30.193Z,66.03
2023-09-24T14:33:56.955Z,63.11
2023-09-24T14:36:23.871Z,65.31
2023-09-24T14:38:51.054Z,64.62
2023-09-24T14:41:19.091Z,64.42
2023-09-24T14:43:47.084Z,63.70
2023-09-24T14:46:13.930Z,64.22
2023-09-24T14:48:40.657Z,64.58
2023-09-24T14:56:50.265Z,64.39
2023-09-24T14:59:17.870Z,63.72
2023-09-24T15:01:53.568Z,63.18
2023-09-24T15:04:29.617Z,61.91
2023-09-24T15:07:01.276Z,61.56
2023-09-24T15:09:51.732Z,61.92
2023-09-24T15:12:33.338Z,61.03
2023-09-24T15:15:03.538Z,60.45
2023-09-24T15:17:30.234Z,59.69
2023-09-24T15:19:57.342Z,62.40
2023-09-24T15:22:27.969Z,61.53
2023-09-24T15:25:02.874Z,61.13
2023-09-24T15:31:21.548Z,64.96
2023-09-24T15:36:38.453Z,63.63
2023-09-24T15:39:05.256Z,64.44
2023-09-24T15:41:33.304Z,65.30
2023-09-24T15:44:31.864Z,65.01
2023-09-24T15:49:43.452Z,65.69
2023-09-24T15:52:10.182Z,66.33
2023-09-24T15:57:37.569Z,65.51
2023-09-24T16:00:10.636Z,65.92
2023-09-24T16:02:40.825Z,65.25
2023-09-24T16:05:10.209Z,65.62
2023-09-24T16:07:37.527Z,65.92
2023-09-24T16:10:05.396Z,65.84
2023-09-24T16:12:34.695Z,66.75
2023-09-24T16:15:01.771Z,67.64
2023-09-24T16:17:28.731Z,68.16
2023-09-24T16:19:55.342Z,69.93
2023-09-24T16:22:22.041Z,69.80
2023-09-24T16:24:51.952Z,70.47
2023-09-24T16:27:18.995Z,71.08
2023-09-24T16:29:45.715Z,71.06
2023-09-24T16:32:12.451Z,72.38
2023-09-24T16:34:40.249Z,73.32
2023-09-24T16:37:06.881Z,73.86
2023-09-24T16:39:34.423Z,75.48
2023-09-24T16:42:01.144Z,75.59
2023-09-24T16:44:29.723Z,75.64
2023-09-24T16:46:56.668Z,74.47
2023-09-24T16:49:23.367Z,75.72
2023-09-24T16:51:51.114Z,75.90
2023-09-24T16:54:23.300Z,76.69
2023-09-24T16:56:49.997Z,76.59
2023-09-24T16:59:17.670Z,75.79
2023-09-24T17:01:44.869Z,76.88
2023-09-24T17:04:12.066Z,76.41
2023-09-24T17:06:39.862Z,76.62
2023-09-24T17:09:06.539Z,76.86
2023-09-24T17:11:34.330Z,76.61
2023-09-24T17:14:00.962Z,77.01
2023-09-24T17:16:27.625Z,76.76
2023-09-24T17:18:54.349Z,77.68
2023-09-24T17:21:20.989Z,77.70
2023-09-24T17:23:47.998Z,78.55
2023-09-24T17:26:17.243Z,78.18
2023-09-24T17:28:44.279Z,78.69
2023-09-24T17:31:13.414Z,79.74
2023-09-24T17:33:40.995Z,79.51
2023-09-24T17:36:10.838Z,80.15
2023-09-24T17:38:38.247Z,80.44
2023-09-24T17:41:04.876Z,79.86
2023-09-24T17:43:31.628Z,80.18
2023-09-24T17:46:02.816Z,80.17
2023-09-24T17:48:29.611Z,80.14
2023-09-24T17:51:04.667Z,80.47
2023-09-24T17:53:31.308Z,80.51
2023-09-24T17:55:59.791Z,80.87
2023-09-24T17:58:27.245Z,81.32
2023-09-24T18:01:05.649Z,81.49
2023-09-24T18:03:34.055Z,81.51
2023-09-24T18:06:00.934Z,82.11
2023-09-24T18:08:29.295Z,82.21
2023-09-24T18:10:58.908Z,82.42
2023-09-24T18:13:26.092Z,82.97
2023-09-24T18:15:55.224Z,82.78
2023-09-24T18:18:25.015Z,83.43
2023-09-24T18:20:54.396Z,83.58
2023-09-24T18:23:21.205Z,83.70
2023-09-24T18:25:48.517Z,83.84
2023-09-24T18:28:15.920Z,84.31
2023-09-24T18:30:42.766Z,84.33
2023-09-24T18:33:10.244Z,84.91
2023-09-24T18:35:38.941Z,85.11
2023-09-24T18:38:07.423Z,85.46
2023-09-24T18:40:39.843Z,85.45
2023-09-24T18:43:07.008Z,85.83
2023-09-24T18:45:34.894Z,86.29
2023-09-24T18:48:01.755Z,86.31
2023-09-24T18:50:30.772Z,86.22
2023-09-24T18:52:57.458Z,86.39
2023-09-24T18:55:24.494Z,86.82
2023-09-24T18:57:51.153Z,86.65
2023-09-24T19:00:17.918Z,86.97
2023-09-24T19:02:45.085Z,87.51
2023-09-24T19:05:14.300Z,87.27
2023-09-24T19:07:40.873Z,87.45
2023-09-24T19:10:14.476Z,87.42
2023-09-24T19:12:44.480Z,87.40
2023-09-24T19:15:12.222Z,87.77
2023-09-24T19:17:39.981Z,88.04
2023-09-24T19:20:07.942Z,87.72
2023-09-24T19:22:35.403Z,87.55
2023-09-24T19:25:02.538Z,87.77
2023-09-24T19:27:29.290Z,87.68
2023-09-24T19:29:57.784Z,88.32
2023-09-24T19:32:27.013Z,87.86
2023-09-24T19:34:54.130Z,88.29
2023-09-24T19:37:20.898Z,88.14
2023-09-24T19:39:47.639Z,88.49
2023-09-24T19:42:14.350Z,88.56
2023-09-24T19:44:41.180Z,88.81
2023-09-24T19:47:08.105Z,88.47
2023-09-24T19:49:34.893Z,88.53
2023-09-24T19:52:01.595Z,88.60
2023-09-24T19:54:30.975Z,88.46
2023-09-24T19:56:59.663Z,88.99
2023-09-24T19:59:26.447Z,88.60
2023-09-24T20:01:53.335Z,89.08
2023-09-24T20:04:19.980Z,89.15
2023-09-24T20:06:47.606Z,88.86
2023-09-24T20:09:15.919Z,89.14
2023-09-24T20:11:44.788Z,89.45
2023-09-24T20:14:11.665Z,89.26
2023-09-24T20:16:39.329Z,89.58
2023-09-24T20:19:08.262Z,89.37
2023-09-24T20:21:35.573Z,89.13
2023-09-24T20:24:08.396Z,89.58
2023-09-24T20:26:39.965Z,89.52
2023-09-24T20:29:09.714Z,89.64
2023-09-24T20:31:37.488Z,89.51
2023-09-24T20:34:05.638Z,89.96
2023-09-24T20:36:33.723Z,89.93
2023-09-24T20:39:07.260Z,90.07
2023-09-24T20:41:36.522Z,89.92
2023-09-24T20:44:03.978Z,89.98
2023-09-24T20:46:38.023Z,90.03
2023-09-24T20:49:05.401Z,90.20
2023-09-24T20:51:32.407Z,90.11
2023-09-24T20:53:59.134Z,89.89
2023-09-24T20:56:25.979Z,89.93
2023-09-24T20:58:53.278Z,90.32
2023-09-24T21:01:20.006Z,90.09
2023-09-24T21:03:47.189Z,90.25
2023-09-24T21:06:14.549Z,90.44
2023-09-24T21:08:41.188Z,90.14
2023-09-24T21:11:07.779Z,90.21
2023-09-24T21:13:35.819Z,90.53
2023-09-24T21:16:03.131Z,90.99
2023-09-24T21:18:29.949Z,90.71
2023-09-24T21:20:56.537Z,90.41
2023-09-24T21:23:24.598Z,90.30
2023-09-24T21:25:51.157Z,90.54
2023-09-24T21:28:17.700Z,90.48
2023-09-24T21:30:44.375Z,90.82
2023-09-24T21:33:12.584Z,90.71
2023-09-24T21:35:39.218Z,90.77
2023-09-24T21:38:05.866Z,90.94
2023-09-24T21:40:32.395Z,90.98
2023-09-24T21:42:58.910Z,90.75
2023-09-24T21:45:25.611Z,91.05
2023-09-24T21:47:52.196Z,91.16
2023-09-24T21:50:18.776Z,90.85
2023-09-24T21:52:45.273Z,90.42
2023-09-24T21:55:11.949Z,91.00
2023-09-24T21:57:38.489Z,90.90
2023-09-24T22:00:14.022Z,91.17
2023-09-24T22:02:42.183Z,91.33
2023-09-24T22:05:09.157Z,91.02
2023-09-24T22:07:35.794Z,91.27
2023-09-24T22:10:02.798Z,91.21
2023-09-24T22:12:29.463Z,91.05
2023-09-24T22:14:56.231Z,90.92
2023-09-24T22:17:23.056Z,91.23
2023-09-24T22:19:49.542Z,91.23
2023-09-24T22:22:16.087Z,91.31
2023-09-24T22:24:43.777Z,91.52
2023-09-24T22:27:10.530Z,91.41
2023-09-24T22:29:37.118Z,91.56
2023-09-24T22:32:04.003Z,91.27
2023-09-24T22:34:30.638Z,91.68
2023-09-24T22:36:57.146Z,91.66
2023-09-24T22:39:23.713Z,91.68
2023-09-24T22:41:51.250Z,91.56
2023-09-24T22:44:17.871Z,91.73
2023-09-24T22:46:44.557Z,91.72
2023-09-24T22:49:11.105Z,92.03
2023-09-24T22:51:37.778Z,91.97
2023-09-24T22:54:04.452Z,92.21
2023-09-24T22:56:31.034Z,91.93
2023-09-24T22:58:58.744Z,92.15
2023-09-24T23:01:25.359Z,92.10
2023-09-24T23:03:52.369Z,91.97
2023-09-24T23:06:19.065Z,92.20
2023-09-24T23:08:45.622Z,91.84
2023-09-24T23:11:12.158Z,91.91
2023-09-24T23:13:38.747Z,92.10
2023-09-24T23:16:05.377Z,91.70
2023-09-24T23:18:32.251Z,91.89
2023-09-24T23:20:59.571Z,92.08
2023-09-24T23:23:26.253Z,91.68
2023-09-24T23:25:53.739Z,91.65
2023-09-24T23:28:20.388Z,91.62
2023-09-24T23:30:47.087Z,91.99
2023-09-24T23:33:14.270Z,91.77
2023-09-24T23:35:41.444Z,92.03
2023-09-24T23:38:08.703Z,91.54
2023-09-24T23:40:35.622Z,91.72
2023-09-24T23:43:02.946Z,91.47
2023-09-24T23:45:36.729Z,91.55
2023-09-24T23:48:08.102Z,91.56
2023-09-24T23:50:36.627Z,91.32
2023-09-24T23:53:04.404Z,91.02
2023-09-24T23:55:31.924Z,91.82
2023-09-24T23:58:06.665Z,91.30
